createdAt,value
2024-04-18T00:01:55.513Z,98701.63
2024-04-18T00:04:22.267Z,98728.00
2024-04-18T00:06:48.960Z,98747.31
2024-04-18T00:09:16.012Z,98746.78
2024-04-18T00:11:46.834Z,98736.84
2024-04-18T00:14:15.780Z,98715.69
2024-04-18T00:16:42.401Z,98704.19
2024-04-18T00:19:08.983Z,98725.38
2024-04-18T00:21:38.779Z,98726.66
2024-04-18T00:24:05.960Z,98704.19
2024-04-18T00:26:35.947Z,98707.31
2024-04-18T00:29:05.380Z,98726.91
2024-04-18T00:31:32.242Z,98727.94
2024-04-18T00:33:59.038Z,98725.59
2024-04-18T00:36:25.840Z,98695.50
2024-04-18T00:38:52.576Z,98721.63
2024-04-18T00:41:24.148Z,98721.84
2024-04-18T00:43:50.744Z,98723.16
2024-04-18T00:46:17.446Z,98721.81
2024-04-18T00:48:44.531Z,98701.47
2024-04-18T00:51:11.357Z,98682.44
2024-04-18T00:53:38.458Z,98696.28
2024-04-18T00:56:07.947Z,98699.94
2024-04-18T00:58:34.779Z,98661.50
2024-04-18T01:01:01.870Z,98673.25
2024-04-18T01:03:29.671Z,98484.72
2024-04-18T01:05:57.287Z,98523.59
2024-04-18T01:08:24.196Z,98535.59
2024-04-18T01:10:50.844Z,98529.84
2024-04-18T01:13:17.429Z,98507.41
2024-04-18T01:15:44.166Z,98499.56
2024-04-18T01:18:10.811Z,98492.81
2024-04-18T01:20:38.639Z,98507.16
2024-04-18T01:23:07.807Z,98443.00
2024-04-18T01:25:34.824Z,98428.41
2024-04-18T01:28:01.469Z,98458.13
2024-04-18T01:30:28.082Z,98433.06
2024-04-18T01:32:54.957Z,98425.00
2024-04-18T01:35:37.936Z,98415.09
2024-04-18T01:38:04.582Z,98450.03
2024-04-18T01:40:38.706Z,98442.72
2024-04-18T01:43:25.377Z,98442.72
2024-04-18T01:45:52.051Z,98423.69
2024-04-18T01:48:21.909Z,98444.03
2024-04-18T01:50:48.665Z,98433.84
2024-04-18T01:53:15.261Z,98483.94
2024-04-18T01:55:42.191Z,98434.09
2024-04-18T01:58:10.715Z,98442.97
2024-04-18T02:00:44.154Z,98462.50
2024-04-18T02:03:10.997Z,98494.34
2024-04-18T02:05:38.133Z,98477.91
2024-04-18T02:08:07.396Z,98464.59
2024-04-18T02:10:35.888Z,98476.59
2024-04-18T02:13:08.337Z,98502.94
2024-04-18T02:15:34.985Z,98494.56
2024-04-18T02:18:04.957Z,98469.31
2024-04-18T02:20:42.188Z,98463.00
2024-04-18T02:23:08.759Z,98517.53
2024-04-18T02:25:35.508Z,98494.28
2024-04-18T02:28:04.693Z,98522.19
2024-04-18T02:30:31.870Z,98502.84
2024-04-18T02:32:58.714Z,98508.63
2024-04-18T02:35:26.085Z,98525.28
2024-04-18T02:37:52.643Z,98528.66
2024-04-18T02:40:19.269Z,98521.63
2024-04-18T02:42:47.411Z,98559.22
2024-04-18T02:45:15.302Z,98516.09
2024-04-18T02:47:45.122Z,98536.75
2024-04-18T02:50:11.694Z,98533.28
2024-04-18T02:52:38.620Z,98519.78
2024-04-18T02:55:06.730Z,98559.44
2024-04-18T02:57:35.568Z,98556.78
2024-04-18T03:00:07.307Z,98553.59
2024-04-18T03:02:34.112Z,98544.69
2024-04-18T03:05:01.017Z,98546.38
2024-04-18T03:07:29.994Z,98536.66
2024-04-18T03:09:56.859Z,98552.78
2024-04-18T03:12:29.116Z,98535.81
2024-04-18T03:15:03.843Z,98527.44
2024-04-18T03:17:33.384Z,98502.22
2024-04-18T03:20:03.330Z,98509.00
2024-04-18T03:22:32.737Z,98490.53
2024-04-18T03:25:03.556Z,98521.13
2024-04-18T03:27:32.367Z,98524.25
2024-04-18T03:30:01.745Z,98541.44
2024-04-18T03:32:28.371Z,98503.06
2024-04-18T03:34:57.424Z,98506.75
2024-04-18T03:37:29.859Z,98519.19
2024-04-18T03:39:56.908Z,98543.16
2024-04-18T03:42:24.635Z,98546.47
2024-04-18T03:44:51.318Z,98561.56
2024-04-18T03:47:17.951Z,98568.63
2024-04-18T03:49:44.501Z,98577.75
2024-04-18T03:52:12.603Z,98562.03
2024-04-18T03:54:55.491Z,98584.94
2024-04-18T03:57:27.386Z,98602.78
2024-04-18T03:59:56.747Z,98577.09
2024-04-18T04:02:23.870Z,98587.03
2024-04-18T04:04:53.410Z,98603.94
2024-04-18T04:07:22.977Z,98620.94
2024-04-18T04:09:50.151Z,98619.06
2024-04-18T04:12:17.926Z,98635.00
2024-04-18T04:14:45.807Z,98659.16
2024-04-18T04:17:14.718Z,98670.66
2024-04-18T04:19:41.468Z,98632.28
2024-04-18T04:22:08.590Z,98661.22
2024-04-18T04:24:35.398Z,98661.69
2024-04-18T04:27:05.057Z,98642.53
2024-04-18T04:29:33.668Z,98659.81
2024-04-18T04:32:01.403Z,98634.31
2024-04-18T04:34:30.995Z,98642.63
2024-04-18T04:36:57.678Z,98685.16
2024-04-18T04:39:25.439Z,98674.09
2024-04-18T04:41:52.044Z,98712.94
2024-04-18T04:44:18.939Z,98716.25
2024-04-18T04:46:45.497Z,98721.88
2024-04-18T04:49:12.145Z,98722.22
2024-04-18T04:51:39.051Z,98751.06
2024-04-18T04:54:07.012Z,98806.81
2024-04-18T04:56:35.160Z,98769.34
2024-04-18T04:59:01.938Z,98796.00
2024-04-18T05:01:31.174Z,98806.56
2024-04-18T05:04:00.638Z,98764.47
2024-04-18T05:06:36.663Z,98785.50
2024-04-18T05:09:07.787Z,98789.00
2024-04-18T05:11:37.980Z,98778.63
2024-04-18T05:14:16.469Z,98770.00
2024-04-18T05:16:46.223Z,98756.44
2024-04-18T05:19:15.154Z,98764.63
2024-04-18T05:21:41.913Z,98786.88
2024-04-18T05:24:14.534Z,98787.72
2024-04-18T05:26:45.648Z,98574.94
2024-04-18T05:29:12.560Z,98589.84
2024-04-18T05:31:41.894Z,98549.91
2024-04-18T05:34:13.477Z,98594.56
2024-04-18T05:36:40.371Z,98581.78
2024-04-18T05:39:09.858Z,98599.00
2024-04-18T05:41:36.491Z,98589.88
2024-04-18T05:44:03.050Z,98567.13
2024-04-18T05:46:31.843Z,98586.22
2024-04-18T05:48:59.599Z,98571.63
2024-04-18T05:51:26.392Z,98558.56
2024-04-18T05:53:54.911Z,98531.94
2024-04-18T05:56:21.628Z,98509.78
2024-04-18T05:58:48.449Z,98452.38
2024-04-18T06:01:15.302Z,98381.88
2024-04-18T06:03:41.982Z,98372.69
2024-04-18T06:06:12.981Z,98332.00
2024-04-18T06:08:40.979Z,98294.00
2024-04-18T06:11:07.641Z,98256.66
2024-04-18T06:13:35.254Z,98291.69
2024-04-18T06:16:02.039Z,98308.41
2024-04-18T06:18:32.144Z,98338.91
2024-04-18T06:21:01.956Z,98356.75
2024-04-18T06:23:30.209Z,98355.94
2024-04-18T06:25:57.875Z,98261.91
2024-04-18T06:28:24.728Z,98260.56
2024-04-18T06:30:51.422Z,98167.59
2024-04-18T06:33:18.672Z,98192.59
2024-04-18T06:35:45.269Z,98197.59
2024-04-18T06:38:14.510Z,98111.69
2024-04-18T06:40:42.007Z,98062.91
2024-04-18T06:43:08.506Z,98015.44
2024-04-18T06:45:35.178Z,97988.06
2024-04-18T06:48:01.800Z,98025.97
2024-04-18T06:50:28.471Z,98101.88
2024-04-18T06:52:54.971Z,98141.91
2024-04-18T06:55:29.512Z,98424.03
2024-04-18T06:57:56.195Z,98655.75
2024-04-18T07:00:22.820Z,98979.97
2024-04-18T07:02:49.369Z,99206.81
2024-04-18T07:05:18.832Z,99495.28
2024-04-18T07:07:45.453Z,99816.03
2024-04-18T07:10:14.735Z,100031.41
2024-04-18T07:12:41.734Z,100217.47
2024-04-18T07:15:08.768Z,100362.63
2024-04-18T07:17:36.975Z,100416.41
2024-04-18T07:20:03.835Z,100413.69
2024-04-18T07:22:30.479Z,100464.06
2024-04-18T07:24:57.641Z,100501.75
2024-04-18T07:27:27.184Z,100645.81
2024-04-18T07:29:56.720Z,100753.22
2024-04-18T07:32:23.326Z,100769.25
2024-04-18T07:34:50.035Z,100845.06
2024-04-18T07:37:16.587Z,100845.06
2024-04-18T07:39:46.288Z,100821.25
2024-04-18T07:42:13.023Z,100689.31
2024-04-18T07:44:40.518Z,100520.38
2024-04-18T07:47:07.354Z,100475.69
2024-04-18T07:49:34.103Z,100462.47
2024-04-18T07:52:06.712Z,100477.47
2024-04-18T07:54:39.126Z,100498.66
2024-04-18T07:57:06.067Z,100507.00
2024-04-18T07:59:33.516Z,100559.78
2024-04-18T08:02:04.323Z,100552.44
2024-04-18T08:04:50.943Z,100431.69
2024-04-18T08:07:20.888Z,100688.75
2024-04-18T08:09:52.873Z,100996.06
2024-04-18T08:12:28.126Z,101450.59
2024-04-18T08:15:00.854Z,101871.50
2024-04-18T08:17:33.498Z,102007.84
2024-04-18T08:20:00.101Z,102026.81
2024-04-18T08:22:26.733Z,101999.25
2024-04-18T08:24:53.245Z,102064.78
2024-04-18T08:27:19.797Z,102046.50
2024-04-18T08:29:46.390Z,102030.28
2024-04-18T08:32:12.945Z,102097.63
2024-04-18T08:34:42.331Z,102156.59
2024-04-18T08:37:10.346Z,102194.59
2024-04-18T08:39:37.379Z,102156.13
2024-04-18T08:42:05.424Z,102199.19
2024-04-18T08:44:32.452Z,102175.22
2024-04-18T08:47:01.502Z,102177.56
2024-04-18T08:49:29.542Z,102207.03
2024-04-18T08:51:59.650Z,102225.38
2024-04-18T08:54:26.353Z,102238.69
2024-04-18T08:56:57.666Z,102253.72
2024-04-18T08:59:24.295Z,102249.50
2024-04-18T09:01:52.162Z,102270.03
2024-04-18T09:04:18.921Z,102240.00
2024-04-18T09:06:45.438Z,102227.97
2024-04-18T09:09:17.349Z,102198.72
2024-04-18T09:11:47.636Z,102170.81
2024-04-18T09:14:14.687Z,102203.38
2024-04-18T09:16:46.141Z,102186.97
2024-04-18T09:19:13.859Z,102185.09
2024-04-18T09:21:42.573Z,102208.19
2024-04-18T09:24:09.246Z,102179.88
2024-04-18T09:26:35.857Z,102201.31
2024-04-18T09:29:02.494Z,102228.13
2024-04-18T09:31:37.957Z,102231.44
2024-04-18T09:34:10.842Z,102231.28
2024-04-18T09:36:43.493Z,102234.97
2024-04-18T09:39:15.049Z,102282.41
2024-04-18T09:41:51.268Z,102267.69
2024-04-18T09:44:23.090Z,102270.31
2024-04-18T09:46:52.403Z,102279.28
2024-04-18T09:49:19.936Z,102269.09
2024-04-18T09:51:48.282Z,102265.97
2024-04-18T09:54:15.662Z,102288.44
2024-04-18T09:56:43.583Z,102267.59
2024-04-18T09:59:14.514Z,102264.50
2024-04-18T10:01:48.220Z,102234.75
2024-04-18T10:04:15.015Z,102205.06
2024-04-18T10:06:47.209Z,102194.44
2024-04-18T10:09:17.684Z,102254.00
2024-04-18T10:11:45.622Z,102257.78
2024-04-18T10:14:13.047Z,102250.75
2024-04-18T10:16:51.023Z,102267.22
2024-04-18T10:19:33.303Z,102227.09
2024-04-18T10:22:16.621Z,102253.81
2024-04-18T10:24:52.930Z,102227.38
2024-04-18T10:27:21.101Z,102176.47
2024-04-18T10:30:02.700Z,102248.50
2024-04-18T10:32:30.715Z,102214.91
2024-04-18T10:34:59.505Z,102226.75
2024-04-18T10:37:28.775Z,102226.97
2024-04-18T10:39:58.587Z,102254.63
2024-04-18T10:42:25.531Z,102252.53
2024-04-18T10:44:52.518Z,102272.41
2024-04-18T10:47:22.323Z,102263.59
2024-04-18T10:49:49.246Z,102304.13
2024-04-18T10:52:17.422Z,102267.28
2024-04-18T10:54:45.149Z,102253.56
2024-04-18T10:57:11.942Z,102266.75
2024-04-18T10:59:41.141Z,102298.56
2024-04-18T11:02:09.003Z,102304.75
2024-04-18T11:04:46.611Z,102322.41
2024-04-18T11:07:16.265Z,102317.69
2024-04-18T11:09:45.836Z,102278.28
2024-04-18T11:12:12.908Z,102296.88
2024-04-18T11:14:39.520Z,102314.94
2024-04-18T11:17:07.937Z,102293.91
2024-04-18T11:19:37.450Z,102285.97
2024-04-18T11:22:04.342Z,102299.25
2024-04-18T11:24:31.036Z,102293.06
2024-04-18T11:26:57.858Z,102299.19
2024-04-18T11:29:31.464Z,102320.03
2024-04-18T11:32:08.731Z,102303.97
2024-04-18T11:34:36.863Z,102315.75
2024-04-18T11:37:03.511Z,102323.75
2024-04-18T11:39:33.021Z,102299.44
2024-04-18T11:41:59.820Z,102302.75
2024-04-18T11:44:27.178Z,102277.69
2024-04-18T11:46:54.167Z,102301.94
2024-04-18T11:49:20.957Z,102306.75
2024-04-18T11:51:47.530Z,102276.59
2024-04-18T11:54:14.125Z,102286.81
2024-04-18T11:56:40.814Z,102292.09
2024-04-18T11:59:07.449Z,102273.94
2024-04-18T12:01:33.967Z,102273.94
2024-04-18T12:04:00.718Z,102275.84
2024-04-18T12:06:27.617Z,102280.59
2024-04-18T12:08:55.400Z,102284.56
2024-04-18T12:11:23.672Z,102296.84
2024-04-18T12:13:50.166Z,102284.38
2024-04-18T12:16:16.763Z,102276.09
2024-04-18T12:18:46.376Z,102287.81
2024-04-18T12:21:12.947Z,102305.53
2024-04-18T12:23:47.098Z,102322.09
2024-04-18T12:26:23.631Z,102296.03
2024-04-18T12:28:50.101Z,102292.91
2024-04-18T12:31:16.669Z,102302.91
2024-04-18T12:33:43.531Z,102313.75
2024-04-18T12:36:10.226Z,102296.19
2024-04-18T12:38:37.081Z,102285.19
2024-04-18T12:41:05.999Z,102257.09
2024-04-18T12:43:33.193Z,102280.97
2024-04-18T12:46:10.506Z,102246.75
2024-04-18T12:48:42.931Z,102271.91
2024-04-18T12:51:12.571Z,102275.97
2024-04-18T12:53:40.658Z,102290.63
2024-04-18T12:56:07.395Z,102279.34
2024-04-18T12:58:34.818Z,102249.34
2024-04-18T13:01:01.847Z,102250.63
2024-04-18T13:03:28.787Z,102201.03
2024-04-18T13:05:55.477Z,102211.56
2024-04-18T13:08:22.082Z,102212.53
2024-04-18T13:10:50.843Z,102217.88
2024-04-18T13:13:17.382Z,102229.13
2024-04-18T13:15:44.019Z,102235.66
2024-04-18T13:18:10.866Z,102244.28
2024-04-18T13:20:37.539Z,102242.06
2024-04-18T13:23:04.219Z,102198.31
2024-04-18T13:25:30.732Z,102213.97
2024-04-18T13:27:58.158Z,102217.03
2024-04-18T13:30:27.794Z,102202.16
2024-04-18T13:32:54.872Z,102195.56
2024-04-18T13:35:21.429Z,102171.81
2024-04-18T13:37:48.079Z,102175.44
2024-04-18T13:40:14.658Z,102124.66
2024-04-18T13:42:41.238Z,102115.13
2024-04-18T13:45:07.956Z,102076.25
2024-04-18T13:47:34.859Z,102059.59
2024-04-18T13:50:01.506Z,102071.84
2024-04-18T13:52:28.001Z,102040.88
2024-04-18T13:54:54.498Z,101997.66
2024-04-18T13:57:21.057Z,101999.59
2024-04-18T13:59:47.674Z,101947.50
2024-04-18T14:02:17.182Z,101965.25
2024-04-18T14:04:43.862Z,101950.84
2024-04-18T14:07:10.758Z,102003.75
2024-04-18T14:09:37.414Z,102015.84
2024-04-18T14:12:04.833Z,101996.03
2024-04-18T14:14:31.775Z,101965.31
2024-04-18T14:17:12.454Z,101909.19
2024-04-18T14:19:40.539Z,101865.13
2024-04-18T14:22:07.385Z,101878.22
2024-04-18T14:24:34.235Z,101832.16
2024-04-18T14:27:01.855Z,101850.38
2024-04-18T14:29:28.415Z,101851.63
2024-04-18T14:31:56.994Z,101827.63
2024-04-18T14:34:24.976Z,101888.75
2024-04-18T14:36:51.717Z,101898.16
2024-04-18T14:39:18.259Z,101866.66
2024-04-18T14:41:44.797Z,101855.44
2024-04-18T14:44:11.374Z,101879.94
2024-04-18T14:46:38.130Z,101878.91
2024-04-18T14:49:14.003Z,101896.25
2024-04-18T14:51:45.397Z,101893.97
2024-04-18T14:54:11.972Z,101873.84
2024-04-18T14:56:38.471Z,101863.59
2024-04-18T14:59:04.995Z,101874.00
2024-04-18T15:01:31.509Z,101882.41
2024-04-18T15:03:58.135Z,101884.78
2024-04-18T15:06:24.732Z,101917.91
2024-04-18T15:08:51.375Z,101919.72
2024-04-18T15:11:17.929Z,101907.00
2024-04-18T15:16:30.699Z,101943.09
2024-04-18T15:19:01.725Z,101959.91
2024-04-18T15:21:28.352Z,101968.28
2024-04-18T15:23:54.920Z,101987.59
2024-04-18T15:26:21.436Z,101983.88
2024-04-18T15:28:51.216Z,101970.72
2024-04-18T15:31:17.833Z,101958.97
2024-04-18T15:33:44.547Z,101969.78
2024-04-18T15:36:14.214Z,101981.94
2024-04-18T15:38:40.886Z,101903.84
2024-04-18T15:41:07.424Z,101910.84
2024-04-18T15:43:35.318Z,101922.94
2024-04-18T15:46:05.054Z,101902.41
2024-04-18T15:48:32.066Z,101907.53
2024-04-18T15:50:59.384Z,101913.09
2024-04-18T15:53:25.895Z,101919.91
2024-04-18T15:55:52.450Z,101910.53
2024-04-18T15:58:19.348Z,101910.25
2024-04-18T16:00:46.020Z,101931.56
2024-04-18T16:03:12.636Z,101944.81
2024-04-18T16:05:39.251Z,101936.16
2024-04-18T16:08:05.935Z,101939.50
2024-04-18T16:10:35.076Z,101944.56
2024-04-18T16:13:01.680Z,101933.91
2024-04-18T16:15:30.955Z,101938.00
2024-04-18T16:18:00.993Z,101925.66
2024-04-18T16:20:27.927Z,101945.53
2024-04-18T16:22:57.001Z,101907.16
2024-04-18T16:25:23.530Z,101891.16
2024-04-18T16:27:50.024Z,101871.31
2024-04-18T16:30:16.796Z,101850.16
2024-04-18T16:32:47.045Z,101888.47
2024-04-18T16:35:13.712Z,101899.19
2024-04-18T16:37:40.274Z,101904.81
2024-04-18T16:40:17.185Z,101890.56
2024-04-18T16:42:43.708Z,101851.66
2024-04-18T16:45:10.250Z,101841.97
2024-04-18T16:47:36.854Z,101807.13
2024-04-18T16:50:03.674Z,101832.66
2024-04-18T16:52:30.257Z,101810.63
2024-04-18T16:54:56.718Z,101807.28
2024-04-18T16:57:24.286Z,101793.81
2024-04-18T16:59:50.899Z,101815.88
2024-04-18T17:02:17.535Z,101803.13
2024-04-18T17:04:44.233Z,101775.13
2024-04-18T17:07:13.621Z,101744.44
2024-04-18T17:09:40.329Z,101744.06
2024-04-18T17:12:07.116Z,101717.09
2024-04-18T17:14:33.909Z,101704.78
2024-04-18T17:17:01.061Z,101657.13
2024-04-18T17:19:28.342Z,101656.38
2024-04-18T17:21:58.962Z,101613.44
2024-04-18T17:24:25.548Z,101550.88
2024-04-18T17:26:52.150Z,101526.97
2024-04-18T17:29:18.698Z,101500.31
2024-04-18T17:31:45.316Z,101463.63
2024-04-18T17:34:11.910Z,101434.09
2024-04-18T17:36:38.796Z,101412.06
2024-04-18T17:39:09.506Z,101370.91
2024-04-18T17:41:36.320Z,101357.13
2024-04-18T17:44:03.202Z,101327.81
2024-04-18T17:46:29.742Z,101301.09
2024-04-18T17:48:56.417Z,101247.81
2024-04-18T17:51:24.272Z,101196.72
2024-04-18T17:53:50.975Z,101168.34
2024-04-18T17:56:17.559Z,101082.88
2024-04-18T17:58:44.080Z,101064.41
2024-04-18T18:01:10.606Z,101025.13
2024-04-18T18:03:38.508Z,101014.91
2024-04-18T18:06:05.324Z,100887.13
2024-04-18T18:08:34.158Z,100632.75
2024-04-18T18:11:00.770Z,100569.66
2024-04-18T18:13:27.487Z,100532.66
2024-04-18T18:15:54.020Z,100472.81
2024-04-18T18:18:20.809Z,100386.13
2024-04-18T18:20:47.420Z,100189.69
2024-04-18T18:23:16.648Z,100108.47
2024-04-18T18:25:46.449Z,100048.34
2024-04-18T18:28:13.079Z,100032.81
2024-04-18T18:30:39.979Z,99976.13
2024-04-18T18:33:06.938Z,99970.06
2024-04-18T18:35:35.809Z,99957.13
2024-04-18T18:38:02.394Z,99970.84
2024-04-18T18:40:35.929Z,99973.50
2024-04-18T18:43:02.890Z,99980.84
2024-04-18T18:45:32.154Z,99991.94
2024-04-18T18:47:58.813Z,99988.28
2024-04-18T18:50:25.348Z,99976.66
2024-04-18T18:52:54.942Z,99988.78
2024-04-18T18:55:21.495Z,99988.81
2024-04-18T18:57:48.063Z,99977.19
2024-04-18T19:00:15.518Z,99998.03
2024-04-18T19:02:44.281Z,99980.13
2024-04-18T19:05:11.038Z,99961.91
2024-04-18T19:07:37.526Z,99965.63
2024-04-18T19:10:04.531Z,99973.50
2024-04-18T19:12:31.075Z,99948.75
2024-04-18T19:14:57.671Z,99947.44
2024-04-18T19:17:24.719Z,99916.63
2024-04-18T19:19:51.330Z,99910.56
2024-04-18T19:22:17.934Z,99944.25
2024-04-18T19:24:44.569Z,99924.78
2024-04-18T19:27:11.202Z,99910.53
2024-04-18T19:29:44.869Z,99896.59
2024-04-18T19:32:14.447Z,99869.75
2024-04-18T19:34:43.983Z,99873.41
2024-04-18T19:37:10.844Z,99835.25
2024-04-18T19:39:37.407Z,99817.31
2024-04-18T19:42:05.254Z,99825.69
2024-04-18T19:44:31.909Z,99799.88
2024-04-18T19:46:58.597Z,99967.19
2024-04-18T19:49:25.401Z,100074.44
2024-04-18T19:51:51.947Z,100170.03
2024-04-18T19:54:18.507Z,100313.56
2024-04-18T19:56:45.542Z,100389.94
2024-04-18T19:59:12.091Z,100451.03
2024-04-18T20:01:38.632Z,100612.81
2024-04-18T20:04:05.615Z,100680.22
2024-04-18T20:06:32.166Z,100704.00
2024-04-18T20:08:59.819Z,100735.44
2024-04-18T20:11:32.785Z,100723.31
2024-04-18T20:13:59.763Z,100706.97
2024-04-18T20:16:29.674Z,100683.44
2024-04-18T20:18:57.709Z,100655.13
2024-04-18T20:21:28.953Z,100626.69
2024-04-18T20:23:56.977Z,100634.16
2024-04-18T20:26:23.599Z,100619.06
2024-04-18T20:28:50.131Z,100615.38
2024-04-18T20:31:16.764Z,100593.41
2024-04-18T20:33:43.388Z,100569.59
2024-04-18T20:36:10.153Z,100593.31
2024-04-18T20:38:36.847Z,100544.06
2024-04-18T20:41:03.570Z,100525.75
2024-04-18T20:43:30.178Z,100529.06
2024-04-18T20:45:56.739Z,100562.97
2024-04-18T20:48:23.398Z,100527.16
2024-04-18T20:50:50.081Z,100536.03
2024-04-18T20:53:16.788Z,100532.97
2024-04-18T20:55:43.346Z,100552.13
2024-04-18T20:58:10.992Z,100546.13
2024-04-18T21:00:37.741Z,100534.31
2024-04-18T21:03:04.787Z,100532.63
2024-04-18T21:05:34.348Z,100538.09
2024-04-18T21:08:03.967Z,100547.91
2024-04-18T21:10:30.526Z,100546.34
2024-04-18T21:12:57.118Z,100552.50
2024-04-18T21:15:23.794Z,100557.72
2024-04-18T21:17:50.659Z,100540.69
2024-04-18T21:20:17.361Z,100550.59
2024-04-18T21:22:43.894Z,100545.72
2024-04-18T21:25:10.557Z,100543.63
2024-04-18T21:27:38.669Z,100539.41
2024-04-18T21:30:05.738Z,100554.16
2024-04-18T21:32:32.231Z,100529.91
2024-04-18T21:34:58.919Z,100560.84
2024-04-18T21:37:25.742Z,100544.00
2024-04-18T21:39:52.367Z,100511.31
2024-04-18T21:42:19.228Z,100509.41
2024-04-18T21:44:45.770Z,100487.50
2024-04-18T21:47:15.421Z,100444.72
2024-04-18T21:49:42.228Z,100433.97
2024-04-18T21:52:08.729Z,100435.09
2024-04-18T21:54:38.523Z,100375.91
2024-04-18T21:57:05.320Z,100332.22
2024-04-18T21:59:31.975Z,100283.22
2024-04-18T22:01:59.936Z,100264.78
2024-04-18T22:04:26.558Z,100228.41
2024-04-18T22:06:53.312Z,100174.75
2024-04-18T22:09:21.564Z,100144.19
2024-04-18T22:11:50.997Z,100088.59
2024-04-18T22:14:17.582Z,100041.97
2024-04-18T22:16:44.239Z,100029.69
2024-04-18T22:19:11.111Z,99970.75
2024-04-18T22:21:40.119Z,99954.22
2024-04-18T22:24:07.730Z,99881.34
2024-04-18T22:26:35.112Z,99877.97
2024-04-18T22:29:01.605Z,99831.13
2024-04-18T22:31:29.254Z,99811.72
2024-04-18T22:33:58.815Z,99753.06
2024-04-18T22:36:29.714Z,99757.53
2024-04-18T22:38:57.114Z,99716.00
2024-04-18T22:41:23.958Z,99650.56
2024-04-18T22:43:51.657Z,99622.44
2024-04-18T22:46:18.411Z,99582.72
2024-04-18T22:48:47.864Z,99573.28
2024-04-18T22:51:14.414Z,99534.38
2024-04-18T22:53:40.919Z,99521.72
2024-04-18T22:56:07.964Z,99468.69
2024-04-18T22:58:34.565Z,99483.66
2024-04-18T23:01:01.351Z,99459.47
2024-04-18T23:03:29.283Z,99404.84
2024-04-18T23:05:55.992Z,99405.59
2024-04-18T23:08:22.488Z,99373.78
2024-04-18T23:10:49.258Z,99388.25
2024-04-18T23:13:16.408Z,99384.00
2024-04-18T23:15:43.020Z,99369.25
2024-04-18T23:18:09.707Z,99334.16
2024-04-18T23:20:36.454Z,99313.97
2024-04-18T23:23:02.935Z,99327.28
2024-04-18T23:25:30.063Z,99273.22
2024-04-18T23:28:02.013Z,99270.81
2024-04-18T23:30:31.065Z,99243.22
2024-04-18T23:32:57.742Z,99204.41
2024-04-18T23:35:27.236Z,99161.09
2024-04-18T23:37:53.857Z,99139.56
2024-04-18T23:40:20.423Z,99059.53
2024-04-18T23:42:46.952Z,99017.91
2024-04-18T23:45:13.489Z,98981.66
2024-04-18T23:47:40.183Z,98826.50
2024-04-18T23:50:07.181Z,98693.53
2024-04-18T23:52:34.068Z,98695.44
2024-04-18T23:55:00.653Z,98672.53
2024-04-18T23:57:27.244Z,98670.19
2024-04-18T23:59:53.760Z,98601.22
